createdAt,value
2019-03-23T00:07:40.352Z,1022.2
2019-03-23T00:17:59.240Z,1022.3
2019-03-23T00:28:13.834Z,1022.6
2019-03-23T00:38:42.793Z,1022.9
2019-03-23T00:49:00.070Z,1022.9
2019-03-23T00:59:16.200Z,1023.0
2019-03-23T01:09:35.382Z,1023.0
2019-03-23T01:20:22.900Z,1023.0
2019-03-23T01:30:36.688Z,1023.1
2019-03-23T01:40:50.114Z,1022.9
2019-03-23T01:51:42.217Z,1023.0
2019-03-23T02:02:07.140Z,1023.0
2019-03-23T02:13:07.354Z,1023.0
2019-03-23T02:23:34.472Z,1023.0
2019-03-23T02:34:29.552Z,1023.0
2019-03-23T02:45:14.774Z,1023.1
2019-03-23T02:55:36.851Z,1023.2
2019-03-23T03:06:32.707Z,1023.3
2019-03-23T03:16:47.357Z,1023.4
2019-03-23T03:27:37.484Z,1023.5
2019-03-23T03:38:29.097Z,1023.5
2019-03-23T03:48:41.404Z,1023.5
2019-03-23T04:01:05.653Z,1023.4
2019-03-23T04:12:10.260Z,1023.4
2019-03-23T04:23:44.104Z,1023.5
2019-03-23T04:34:59.763Z,1023.5
2019-03-23T04:45:39.685Z,1023.6
2019-03-23T04:56:51.715Z,1023.7
2019-03-23T05:08:32.934Z,1023.9
2019-03-23T05:20:13.445Z,1023.9
2019-03-23T05:33:51.914Z,1024.1
2019-03-23T05:44:40.700Z,1024.4
2019-03-23T05:56:09.218Z,1024.4
2019-03-23T06:06:56.032Z,1024.4
2019-03-23T06:18:01.744Z,1024.5
2019-03-23T06:29:36.220Z,1024.6
2019-03-23T06:40:01.295Z,1024.5
2019-03-23T06:50:31.864Z,1024.5
2019-03-23T07:01:24.206Z,1024.6
2019-03-23T07:13:03.403Z,1024.7
2019-03-23T07:24:10.097Z,1024.6
2019-03-23T07:34:55.127Z,1024.7
2019-03-23T07:45:06.916Z,1024.7
2019-03-23T07:55:40.922Z,1024.8
2019-03-23T08:06:58.265Z,1024.8
2019-03-23T08:17:32.973Z,1024.9
2019-03-23T08:28:32.369Z,1024.9
2019-03-23T08:39:33.023Z,1025.1
2019-03-23T08:50:20.171Z,1024.9
2019-03-23T09:01:20.322Z,1025.1
2019-03-23T09:12:37.115Z,1025.2
2019-03-23T09:23:05.498Z,1025.3
2019-03-23T09:33:51.137Z,1025.3
2019-03-23T09:44:49.463Z,1025.4
2019-03-23T09:58:31.515Z,1025.5
2019-03-23T10:23:10.266Z,1025.4
2019-03-23T10:45:46.967Z,1025.3
2019-03-23T10:56:37.724Z,1025.4
2019-03-23T11:09:39.607Z,1025.5
2019-03-23T11:22:49.498Z,1025.5
2019-03-23T11:48:24.658Z,1025.7
2019-03-23T11:59:06.669Z,1025.8
2019-03-23T12:10:02.455Z,1025.7
2019-03-23T12:21:04.130Z,1025.6
2019-03-23T12:31:28.975Z,1025.7
2019-03-23T12:42:54.038Z,1025.6
2019-03-23T12:53:55.059Z,1025.6
2019-03-23T13:07:06.810Z,1025.6
2019-03-23T13:20:15.836Z,1025.7
2019-03-23T13:32:02.959Z,1025.8
2019-03-23T13:44:41.578Z,1025.8
2019-03-23T14:18:10.804Z,1025.8
2019-03-23T14:30:34.298Z,1025.8
2019-03-23T14:50:21.597Z,1026.0
2019-03-23T15:01:42.533Z,1026.0
2019-03-23T15:13:00.049Z,1026.1
2019-03-23T15:24:42.389Z,1026.2
2019-03-23T15:35:18.966Z,1026.3
2019-03-23T15:46:16.433Z,1026.4
2019-03-23T15:57:10.152Z,1026.3
2019-03-23T16:07:29.056Z,1026.3
2019-03-23T16:18:30.397Z,1026.4
2019-03-23T16:29:50.543Z,1026.4
2019-03-23T16:54:11.021Z,1026.4
2019-03-23T17:05:08.183Z,1026.4
2019-03-23T17:18:48.507Z,1026.4
2019-03-23T17:29:26.129Z,1026.5
2019-03-23T17:41:01.967Z,1026.5
2019-03-23T17:52:16.666Z,1026.4
2019-03-23T18:02:58.782Z,1026.6
2019-03-23T18:13:46.232Z,1026.7
2019-03-23T18:25:19.898Z,1026.9
2019-03-23T18:36:05.722Z,1027.0
2019-03-23T19:20:01.030Z,1027.2
2019-03-23T20:07:04.503Z,1027.4
2019-03-23T20:35:15.747Z,1027.4
2019-03-23T20:46:09.520Z,1027.4
2019-03-23T21:15:32.295Z,1027.4
2019-03-23T21:27:27.570Z,1027.3
2019-03-23T21:39:40.354Z,1027.4
2019-03-23T21:52:17.161Z,1027.2
2019-03-23T22:03:43.099Z,1027.3
2019-03-23T22:28:15.402Z,1027.1
2019-03-23T22:40:36.456Z,1027.1
2019-03-23T22:51:55.856Z,1027.0
2019-03-23T23:02:13.788Z,1026.9
2019-03-23T23:12:30.417Z,1026.8
2019-03-23T23:22:50.666Z,1026.8
2019-03-23T23:33:38.199Z,1026.8
2019-03-23T23:43:56.058Z,1026.8
2019-03-23T23:54:18.551Z,1026.7
